Time;durP1;ratioP1;P1;durP2;ratioP2;P2;SDS_P1;SDS_P2;PMS_P1;PMS_P2;Temp;Humidity;BMP_temperature;BMP_pressure;BME280_temperature;BME280_humidity;BME280_pressure;Samples;Min_cycle;Max_cycle;Signal;HPM_P1;HPM_P2
2024/03/13 00:00:41;;;;;;;9.63;8.10;;;;;;;11.31;100.00;139901.81;5070254;28;20086;-69
2024/03/13 00:03:08;;;;;;;10.43;8.27;;;;;;;11.27;100.00;139803.72;5070912;28;20031;-70
2024/03/13 00:05:33;;;;;;;9.88;7.82;;;;;;;11.66;100.00;139801.31;5070083;28;20066;-70
2024/03/13 00:07:58;;;;;;;8.85;7.55;;;;;;;11.51;100.00;139840.81;5071749;28;20041;-68
2024/03/13 00:10:26;;;;;;;9.63;7.43;;;;;;;11.11;100.00;139730.25;5071116;28;20036;-70
2024/03/13 00:12:51;;;;;;;8.02;7.00;;;;;;;11.11;100.00;139771.44;5069497;28;20020;-70
2024/03/13 00:15:17;;;;;;;8.15;7.03;;;;;;;11.22;100.00;139848.66;5070155;28;20101;-70
2024/03/13 00:17:44;;;;;;;8.95;7.47;;;;;;;11.47;100.00;139756.78;5071544;28;20036;-70
2024/03/13 00:20:11;;;;;;;8.82;7.07;;;;;;;11.04;100.00;139721.56;5070838;28;20021;-69
2024/03/13 00:22:37;;;;;;;9.20;6.97;;;;;;;11.16;100.00;139865.47;5053136;28;20483;-69
2024/03/13 00:25:03;;;;;;;7.82;7.00;;;;;;;11.35;100.00;139835.34;5071582;28;20040;-69
2024/03/13 00:27:29;;;;;;;10.45;7.28;;;;;;;10.84;100.00;139731.28;5071221;28;20384;-70
2024/03/13 00:29:55;;;;;;;9.57;7.20;;;;;;;11.42;100.00;139787.41;5069201;28;20037;-70
2024/03/13 00:32:23;;;;;;;8.55;7.65;;;;;;;11.08;100.00;139759.22;5071574;28;20032;-70
2024/03/13 00:34:49;;;;;;;9.30;7.65;;;;;;;11.38;100.00;139767.75;5069837;28;20036;-70
2024/03/13 00:37:16;;;;;;;14.07;11.43;;;;;;;11.04;100.00;139717.59;5069339;28;20085;-71
2024/03/13 00:39:42;;;;;;;14.73;12.95;;;;;;;10.97;100.00;139679.47;5069331;28;20021;-70
2024/03/13 00:42:11;;;;;;;12.75;10.50;;;;;;;11.06;100.00;139682.50;5071211;28;20032;-70
2024/03/13 00:44:37;;;;;;;13.27;10.15;;;;;;;10.78;100.00;139687.56;5070221;28;20143;-69
2024/03/13 00:47:03;;;;;;;16.52;9.57;;;;;;;10.63;100.00;139720.69;5070833;28;20406;-69
2024/03/13 00:49:29;;;;;;;12.27;9.48;;;;;;;11.06;100.00;139875.47;5070908;28;20036;-70
2024/03/13 00:51:54;;;;;;;11.13;9.75;;;;;;;11.14;100.00;139953.41;5069730;28;20035;-74
2024/03/13 00:54:21;;;;;;;11.00;9.90;;;;;;;10.88;100.00;139961.88;5068759;28;20094;-70
2024/03/13 00:56:48;;;;;;;14.40;9.32;;;;;;;10.97;100.00;140071.63;5059772;28;20433;-71
2024/03/13 00:59:17;;;;;;;11.30;8.50;;;;;;;11.07;100.00;140057.94;5070842;28;20035;-70
2024/03/13 01:01:48;;;;;;;11.25;8.95;;;;;;;10.63;100.00;139990.63;5070348;28;20032;-70
2024/03/13 01:04:14;;;;;;;10.90;8.93;;;;;;;10.74;100.00;140042.16;5070552;28;20038;-69
2024/03/13 01:06:40;;;;;;;9.30;7.70;;;;;;;11.07;100.00;140105.41;5071030;28;20560;-69
2024/03/13 01:09:09;;;;;;;10.60;8.65;;;;;;;11.05;100.00;140192.19;5071555;28;20467;-69
2024/03/13 01:11:35;;;;;;;10.88;8.52;;;;;;;10.88;100.00;140183.09;5073392;28;20134;-70
2024/03/13 01:14:03;;;;;;;10.48;8.85;;;;;;;10.99;100.00;140165.22;5072937;28;20024;-70
2024/03/13 01:16:29;;;;;;;12.48;9.23;;;;;;;11.17;100.00;140156.06;5068843;28;20039;-71
2024/03/13 01:18:54;;;;;;;12.65;10.45;;;;;;;10.89;100.00;140090.28;5068311;28;20048;-69
2024/03/13 01:21:22;;;;;;;13.52;10.55;;;;;;;10.92;100.00;140236.22;5069884;28;20078;-76
2024/03/13 01:23:50;;;;;;;16.50;12.60;;;;;;;10.28;100.00;140097.28;5071236;28;20051;-69
2024/03/13 01:26:15;;;;;;;13.48;10.82;;;;;;;11.10;100.00;140283.69;5069967;28;20025;-69
2024/03/13 01:28:42;;;;;;;14.35;11.13;;;;;;;10.44;100.00;140104.00;5051727;28;20109;-69
2024/03/13 01:31:09;;;;;;;13.82;9.65;;;;;;;10.87;100.00;140296.50;5068838;28;20028;-69
2024/03/13 01:33:40;;;;;;;12.85;9.90;;;;;;;10.77;100.00;140211.25;5070087;28;20028;-69
2024/03/13 01:36:06;;;;;;;;;;;;;;;10.95;100.00;140360.22;5069207;28;20029;-69
2024/03/13 01:38:32;;;;;;;11.77;8.18;;;;;;;10.81;100.00;140390.44;5069668;28;20310;-70
2024/03/13 01:55:10;;;;;;;18.10;9.50;;;;;;;11.09;100.00;140461.50;5069508;28;20125;-70
2024/03/13 02:03:17;;;;;;;12.05;7.97;;;;;;;10.86;100.00;140529.44;5068609;28;20043;-72
2024/03/13 02:05:43;;;;;;;11.30;8.10;;;;;;;11.06;100.00;140490.44;5069233;28;20514;-69
2024/03/13 02:08:13;;;;;;;11.77;8.43;;;;;;;10.96;100.00;140531.22;5069414;28;20137;-70
2024/03/13 02:10:39;;;;;;;13.05;8.60;;;;;;;10.83;100.00;140550.69;5067935;28;20131;-70
2024/03/13 02:13:11;;;;;;;12.43;8.63;;;;;;;11.12;100.00;140521.22;5069472;28;20039;-70
2024/03/13 02:15:39;;;;;;;13.02;8.85;;;;;;;10.86;100.00;140604.03;5068215;28;20029;-70
2024/03/13 02:18:18;;;;;;;13.25;9.52;;;;;;;10.34;100.00;140491.72;5069198;28;20040;-70
2024/03/13 02:20:46;;;;;;;12.98;9.50;;;;;;;11.00;100.00;140554.69;5068135;28;20494;-71
2024/03/13 02:23:17;;;;;;;14.52;10.10;;;;;;;11.00;100.00;140559.84;5049702;28;20443;-69
2024/03/13 02:25:42;;;;;;;14.03;10.70;;;;;;;10.27;100.00;140464.97;5068156;28;20047;-73
2024/03/13 02:28:08;;;;;;;15.68;11.32;;;;;;;10.78;100.00;140656.00;5059461;28;20503;-70
2024/03/13 02:30:33;;;;;;;17.33;11.32;;;;;;;10.23;100.00;140459.28;5050761;28;20114;-69
2024/03/13 02:32:59;;;;;;;14.82;10.88;;;;;;;10.70;100.00;140544.53;5069151;28;20472;-69
2024/03/13 02:35:24;;;;;;;14.90;10.65;;;;;;;10.80;100.00;140609.28;5049064;28;20112;-69
2024/03/13 02:37:50;;;;;;;15.57;11.02;;;;;;;10.62;100.00;140520.59;5069173;28;20482;-69
2024/03/13 02:40:18;;;;;;;13.80;9.88;;;;;;;10.48;100.00;140528.72;5068667;28;20079;-69
2024/03/13 02:42:44;;;;;;;14.73;10.30;;;;;;;10.22;100.00;140552.00;5066008;28;20028;-69
2024/03/13 02:45:12;;;;;;;17.52;12.82;;;;;;;10.07;100.00;140557.72;5049936;28;20032;-69
2024/03/13 02:47:44;;;;;;;20.52;14.02;;;;;;;10.58;100.00;140653.72;5067062;28;20040;-69
2024/03/13 02:50:12;;;;;;;24.30;17.13;;;;;;;10.60;100.00;140738.16;5069190;28;20043;-70
2024/03/13 02:52:42;;;;;;;24.80;16.00;;;;;;;10.55;100.00;140735.47;5068391;28;20056;-68
2024/03/13 02:55:10;;;;;;;18.20;12.27;;;;;;;10.31;100.00;140694.06;5068635;28;20031;-69
2024/03/13 02:57:35;;;;;;;16.08;11.15;;;;;;;10.22;100.00;140823.28;5068150;28;20124;-68
2024/03/13 03:00:03;;;;;;;13.27;10.00;;;;;;;10.38;100.00;140887.94;5068093;28;20123;-69
2024/03/13 03:02:28;;;;;;;14.20;9.70;;;;;;;10.46;100.00;140989.13;5050249;28;20036;-70
2024/03/13 03:04:54;;;;;;;15.38;10.35;;;;;;;10.69;100.00;141011.50;5068315;28;20094;-68
2024/03/13 03:07:19;;;;;;;13.02;9.60;;;;;;;10.12;100.00;140916.44;5068051;28;20032;-68
2024/03/13 03:09:45;;;;;;;14.57;9.90;;;;;;;10.06;100.00;140822.53;5068378;28;20032;-68
2024/03/13 03:12:10;;;;;;;16.40;10.70;;;;;;;10.38;100.00;140939.34;5067242;28;20051;-68
2024/03/13 03:14:36;;;;;;;16.45;11.27;;;;;;;10.00;100.00;140786.66;5068737;28;20035;-68
2024/03/13 03:17:02;;;;;;;14.68;11.25;;;;;;;10.60;100.00;140857.88;5068016;28;20025;-73
2024/03/13 03:19:28;;;;;;;16.40;11.45;;;;;;;10.80;100.00;140841.97;5057251;28;20419;-69
2024/03/13 03:21:54;;;;;;;19.40;12.27;;;;;;;10.61;100.00;140771.41;5068099;28;20066;-69
2024/03/13 03:24:20;;;;;;;18.02;12.65;;;;;;;10.09;100.00;140662.63;5049866;28;20040;-70
2024/03/13 03:26:45;;;;;;;16.40;12.40;;;;;;;10.62;100.00;140721.16;5067045;28;20036;-68
2024/03/13 03:29:11;;;;;;;18.58;12.82;;;;;;;9.84;100.00;140549.72;5067813;28;20031;-69
2024/03/13 03:31:36;;;;;;;16.58;12.95;;;;;;;10.27;100.00;140651.19;5066022;28;20029;-69
2024/03/13 03:34:02;;;;;;;16.55;12.52;;;;;;;10.55;100.00;140732.91;5068584;28;20029;-69
2024/03/13 03:36:28;;;;;;;16.67;12.82;;;;;;;10.64;100.00;140684.69;5061025;28;20158;-68
2024/03/13 03:38:53;;;;;;;18.92;15.07;;;;;;;10.53;100.00;140641.94;5071623;28;20051;-69
2024/03/13 03:41:18;;;;;;;20.95;14.68;;;;;;;10.65;100.00;140512.19;5071429;28;20035;-71
2024/03/13 03:43:44;;;;;;;17.70;13.13;;;;;;;10.63;100.00;140652.69;5071816;28;20025;-69
2024/03/13 03:46:12;;;;;;;18.92;13.43;;;;;;;10.26;100.00;140555.16;5072439;28;21235;-68
2024/03/13 03:48:40;;;;;;;20.58;15.18;;;;;;;10.62;100.00;140646.59;5072282;28;20082;-68
2024/03/13 03:51:06;;;;;;;19.90;13.50;;;;;;;10.28;100.00;140458.19;5053441;28;20032;-68
2024/03/13 03:53:31;;;;;;;16.95;12.35;;;;;;;10.92;100.00;140457.47;5071923;28;20112;-69
2024/03/13 03:55:58;;;;;;;18.42;12.30;;;;;;;-140.33;100.00;61596.09;5071580;28;20143;-70
2024/03/13 03:58:24;;;;;;;14.25;10.43;;;;;;;-140.33;100.00;61596.09;5053786;28;20032;-67
2024/03/13 04:00:49;;;;;;;17.30;10.95;;;;;;;-140.33;100.00;61596.09;5072031;28;20031;-68
2024/03/13 04:03:15;;;;;;;16.80;11.38;;;;;;;10.61;100.00;139969.13;5071639;28;20490;-68
2024/03/13 04:05:40;;;;;;;15.23;11.20;;;;;;;9.82;100.00;139914.66;5069704;28;20173;-70
2024/03/13 04:08:05;;;;;;;19.30;13.60;;;;;;;9.85;100.00;140038.41;5071016;28;20032;-70
2024/03/13 04:10:31;;;;;;;20.48;14.38;;;;;;;9.73;100.00;140109.16;5071425;28;20036;-70
2024/03/13 04:12:56;;;;;;;21.05;14.07;;;;;;;10.67;100.00;140277.75;5071166;28;20028;-71
2024/03/13 04:15:23;;;;;;;18.48;13.18;;;;;;;10.70;100.00;140257.69;5071582;28;20040;-70
2024/03/13 04:17:50;;;;;;;20.90;13.95;;;;;;;9.99;100.00;140082.97;5071479;28;20032;-69
2024/03/13 04:20:20;;;;;;;19.77;13.85;;;;;;;10.27;100.00;140020.38;5070539;28;20028;-70
2024/03/13 04:22:46;;;;;;;28.25;18.83;;;;;;;10.26;100.00;140020.63;5069907;28;20031;-70
2024/03/13 04:25:13;;;;;;;22.15;15.82;;;;;;;10.45;100.00;140187.22;5052400;28;20032;-70
2024/03/13 04:27:39;;;;;;;26.20;20.23;;;;;;;10.45;100.00;140080.66;5052394;28;20029;-70
2024/03/13 04:30:05;;;;;;;23.52;16.38;;;;;;;10.42;100.00;140000.22;5070687;28;20036;-74
2024/03/13 04:32:31;;;;;;;23.38;15.48;;;;;;;10.56;100.00;140185.03;5071788;28;20036;-71
2024/03/13 04:34:57;;;;;;;26.27;17.38;;;;;;;10.31;100.00;140063.19;5052568;28;20029;-72
2024/03/13 04:37:23;;;;;;;25.00;17.08;;;;;;;10.67;100.00;140078.34;5070047;28;20093;-72
2024/03/13 04:39:49;;;;;;;23.20;15.80;;;;;;;10.22;100.00;139896.72;5053343;28;20036;-69
2024/03/13 04:42:15;;;;;;;21.30;14.70;;;;;;;10.36;100.00;139987.53;5069986;28;20036;-71
2024/03/13 04:44:42;;;;;;;24.80;16.52;;;;;;;9.49;100.00;139722.84;5069359;28;20028;-71
2024/03/13 04:47:08;;;;;;;26.73;17.38;;;;;;;10.25;100.00;139834.41;5067485;28;20024;-70
2024/03/13 04:49:35;;;;;;;24.17;16.40;;;;;;;10.60;100.00;139889.63;5068300;28;20035;-70
2024/03/13 04:52:01;;;;;;;23.65;17.45;;;;;;;9.89;100.00;139661.44;5069871;28;20574;-69
2024/03/13 04:54:27;;;;;;;24.85;17.08;;;;;;;9.53;100.00;139550.00;5069462;28;20099;-72
2024/03/13 04:56:53;;;;;;;22.48;14.98;;;;;;;10.21;100.00;139554.09;5068484;28;20521;-70
2024/03/13 04:59:19;;;;;;;20.60;13.68;;;;;;;10.34;100.00;139533.09;5050771;28;20100;-70
2024/03/13 05:01:45;;;;;;;20.83;13.82;;;;;;;10.21;100.00;139426.81;5052303;28;20032;-70
2024/03/13 05:04:10;;;;;;;24.02;15.73;;;;;;;10.70;100.00;139580.22;5069400;28;20039;-70
2024/03/13 05:06:36;;;;;;;22.35;15.98;;;;;;;10.12;100.00;139381.47;5068947;28;20024;-71
2024/03/13 05:09:01;;;;;;;21.58;15.10;;;;;;;10.78;100.00;139462.66;5069491;28;20067;-73
2024/03/13 05:11:27;;;;;;;23.40;15.13;;;;;;;10.80;100.00;139446.75;5069225;28;20039;-73
2024/03/13 05:13:54;;;;;;;21.63;14.02;;;;;;;10.06;100.00;139223.56;5050403;28;20036;-69
2024/03/13 05:16:20;;;;;;;20.05;14.13;;;;;;;10.80;100.00;139382.47;5070150;28;20036;-71
2024/03/13 05:18:45;;;;;;;19.42;13.13;;;;;;;10.88;100.00;139336.88;5069504;28;20503;-71
2024/03/13 05:21:12;;;;;;;16.95;12.25;;;;;;;10.52;100.00;139178.28;5073488;28;20036;-75
2024/03/13 05:23:38;;;;;;;22.15;13.43;;;;;;;10.35;100.00;139137.19;5054314;28;20028;-73
2024/03/13 05:26:04;;;;;;;27.10;15.05;;;;;;;10.69;100.00;139158.81;5070342;28;20037;-69
2024/03/13 05:28:31;;;;;;;31.52;17.80;;;;;;;10.63;100.00;139211.66;5066661;28;20024;-73
2024/03/13 05:30:56;;;;;;;32.10;17.05;;;;;;;10.80;100.00;139197.31;5070136;28;20404;-71
2024/03/13 05:33:22;;;;;;;26.85;15.77;;;;;;;10.74;100.00;139247.59;5068528;28;20044;-71
2024/03/13 05:35:47;;;;;;;20.55;13.07;;;;;;;10.54;100.00;139105.84;5067336;28;20024;-71
2024/03/13 05:38:13;;;;;;;27.45;16.85;;;;;;;10.99;100.00;139318.88;5068018;28;20032;-71
2024/03/13 05:40:38;;;;;;;25.10;18.98;;;;;;;10.66;100.00;139164.66;5069524;28;20031;-75
2024/03/13 05:43:03;;;;;;;21.27;15.32;;;;;;;10.27;100.00;139198.16;5055019;28;20033;-70
2024/03/13 05:45:29;;;;;;;19.58;15.07;;;;;;;10.61;100.00;139141.31;5050386;28;20481;-70
2024/03/13 05:47:55;;;;;;;15.13;10.35;;;;;;;10.48;100.00;139333.44;5069927;28;20028;-69
2024/03/13 05:50:20;;;;;;;16.35;12.07;;;;;;;10.18;100.00;139297.91;5049998;28;20036;-71
2024/03/13 05:52:46;;;;;;;14.93;10.10;;;;;;;10.74;100.00;139392.75;5068559;28;20038;-70
2024/03/13 05:55:16;;;;;;;18.17;12.20;;;;;;;10.20;100.00;139290.84;5069039;28;20415;-69
2024/03/13 05:57:41;;;;;;;14.07;9.88;;;;;;;9.86;100.00;139306.41;5068881;28;20036;-74
2024/03/13 06:00:09;;;;;;;20.88;14.75;;;;;;;10.48;100.00;139489.94;5069729;28;20021;-71
2024/03/13 06:02:36;;;;;;;24.23;16.58;;;;;;;10.68;100.00;139500.97;5069433;28;20024;-70
2024/03/13 06:05:11;;;;;;;22.23;14.38;;;;;;;10.22;100.00;139379.19;5068831;28;20033;-70
2024/03/13 06:07:37;;;;;;;22.38;14.65;;;;;;;10.04;100.00;139298.53;5068977;28;20025;-71
2024/03/13 06:10:05;;;;;;;26.10;15.00;;;;;;;10.77;100.00;139388.34;5068613;28;20039;-71
2024/03/13 06:12:33;;;;;;;31.77;16.33;;;;;;;10.87;100.00;139400.03;5068175;28;20410;-70
2024/03/13 06:14:58;;;;;;;33.20;19.15;;;;;;;10.91;100.00;139337.38;5067737;28;20471;-70
2024/03/13 06:17:24;;;;;;;32.83;19.50;;;;;;;10.46;100.00;139142.28;5056595;28;20039;-70
2024/03/13 06:19:49;;;;;;;34.50;19.95;;;;;;;11.05;100.00;139143.66;5068609;28;20043;-70
2024/03/13 06:22:15;;;;;;;32.53;19.60;;;;;;;11.27;100.00;139150.06;5069003;28;20028;-69
2024/03/13 06:24:40;;;;;;;21.15;15.20;;;;;;;10.70;100.00;138994.03;5068860;28;20105;-68
2024/03/13 06:27:09;;;;;;;20.58;14.10;;;;;;;11.00;100.00;139002.22;5067969;28;20107;-68
2024/03/13 06:32:19;;;;;;;30.60;23.75;;;;;;;11.02;100.00;139104.63;5068772;28;20190;-69
2024/03/13 06:34:44;;;;;;;29.10;22.60;;;;;;;11.01;100.00;139050.88;5069237;28;20103;-71
2024/03/13 06:37:11;;;;;;;29.63;23.17;;;;;;;11.12;100.00;139027.63;5068740;28;20589;-69
2024/03/13 06:39:36;;;;;;;28.92;22.02;;;;;;;10.93;100.00;138988.50;5068880;28;20056;-69
2024/03/13 06:42:01;;;;;;;23.02;19.10;;;;;;;11.49;100.00;139123.00;5068555;28;20109;-69
2024/03/13 06:44:27;;;;;;;33.05;27.88;;;;;;;11.38;100.00;139119.09;5068789;28;20119;-69
2024/03/13 06:46:52;;;;;;;31.92;27.15;;;;;;;11.40;100.00;139098.03;5066258;28;20040;-69
2024/03/13 06:49:18;;;;;;;24.33;21.75;;;;;;;11.29;100.00;139015.75;5068914;28;20031;-70
2024/03/13 06:51:43;;;;;;;23.35;20.70;;;;;;;11.82;100.00;139159.94;5069058;28;20032;-69
2024/03/13 06:54:08;;;;;;;25.48;21.85;;;;;;;12.02;100.00;139039.06;5050300;28;20040;-69
2024/03/13 06:56:34;;;;;;;22.88;18.38;;;;;;;12.17;100.00;139237.78;5068708;28;20426;-69
2024/03/13 06:58:59;;;;;;;20.45;17.17;;;;;;;12.37;100.00;139173.56;5068344;28;20046;-70
2024/03/13 07:01:25;;;;;;;33.03;27.77;;;;;;;12.36;100.00;139162.34;5068351;28;20418;-71
2024/03/13 07:03:50;;;;;;;26.73;21.58;;;;;;;12.14;100.00;139215.34;5049834;28;20028;-69
2024/03/13 07:06:18;;;;;;;20.25;16.95;;;;;;;12.54;100.00;139316.34;5068577;28;20055;-70
2024/03/13 07:08:43;;;;;;;24.27;17.92;;;;;;;12.23;100.00;139231.16;5068137;28;20035;-68
2024/03/13 07:11:09;;;;;;;23.17;19.75;;;;;;;12.51;100.00;139268.09;5049071;28;20426;-70
2024/03/13 07:13:34;;;;;;;13.30;9.35;;;;;;;12.82;100.00;139479.69;5069917;28;20028;-69
2024/03/13 07:16:00;;;;;;;5.90;5.10;;;;;;;13.00;100.00;139502.47;5071226;28;20198;-68
2024/03/13 07:18:32;;;;;;;7.68;6.13;;;;;;;13.12;100.00;139615.72;5066196;28;20033;-69
2024/03/13 07:20:58;;;;;;;6.90;5.50;;;;;;;13.49;100.00;139795.16;5068539;28;20099;-69
2024/03/13 07:23:24;;;;;;;5.53;4.97;;;;;;;13.24;100.00;139741.88;5066605;28;20119;-69
2024/03/13 07:25:50;;;;;;;6.28;5.68;;;;;;;13.65;100.00;139960.59;5068150;28;20021;-69
2024/03/13 07:28:25;;;;;;;5.88;5.22;;;;;;;12.86;100.00;139936.84;5067954;28;20112;-70
2024/03/13 07:30:50;;;;;;;5.82;5.22;;;;;;;12.87;100.00;140019.22;5068969;28;20032;-70
2024/03/13 07:33:16;;;;;;;7.28;5.10;;;;;;;13.25;100.00;140154.78;5067685;28;20414;-71
2024/03/13 07:35:42;;;;;;;6.25;5.65;;;;;;;13.73;100.00;140063.22;5066321;28;20039;-70
2024/03/13 07:38:11;;;;;;;11.55;9.07;;;;;;;13.84;100.00;140189.78;5067129;28;20025;-69
2024/03/13 07:40:40;;;;;;;7.15;5.70;;;;;;;13.91;100.00;140410.44;5067056;28;20145;-70
2024/03/13 07:43:09;;;;;;;7.45;6.60;;;;;;;14.81;100.00;140315.44;5066851;28;20024;-70
2024/03/13 07:45:39;;;;;;;8.32;6.28;;;;;;;14.38;100.00;140363.31;5068259;28;20422;-70
2024/03/13 07:48:07;;;;;;;6.60;5.82;;;;;;;14.96;100.00;140478.69;5067373;28;20574;-70
2024/03/13 07:50:34;;;;;;;6.97;5.30;;;;;;;14.49;100.00;140505.56;5066528;28;20090;-70
2024/03/13 07:53:02;;;;;;;5.30;4.80;;;;;;;15.06;100.00;140684.88;5065366;28;20418;-70
2024/03/13 07:55:28;;;;;;;5.78;5.22;;;;;;;15.14;100.00;140660.84;5067675;28;20038;-74
2024/03/13 07:57:53;;;;;;;5.40;4.63;;;;;;;14.61;100.00;140746.00;5065962;28;20032;-70
2024/03/13 08:00:22;;;;;;;5.80;4.80;;;;;;;15.29;100.00;140811.56;5068369;28;20028;-69
2024/03/13 08:02:48;;;;;;;6.85;5.93;;;;;;;15.85;100.00;140831.78;5068136;28;20036;-70
2024/03/13 08:05:14;;;;;;;5.22;4.72;;;;;;;15.10;100.00;140775.78;5068019;28;20471;-70
2024/03/13 08:07:44;;;;;;;6.95;5.20;;;;;;;15.40;100.00;140825.63;5065919;28;20036;-70
2024/03/13 08:10:10;;;;;;;5.50;5.00;;;;;;;14.20;100.00;140811.06;5067995;28;20040;-70
2024/03/13 08:12:35;;;;;;;7.28;6.00;;;;;;;15.48;100.00;140979.31;5067796;28;20028;-70
2024/03/13 08:15:02;;;;;;;5.57;4.90;;;;;;;15.06;100.00;140962.06;5067340;28;20408;-70
2024/03/13 08:17:27;;;;;;;6.03;5.43;;;;;;;14.28;100.00;140765.25;5067427;28;20093;-70
2024/03/13 08:19:53;;;;;;;5.57;5.00;;;;;;;14.37;100.00;140891.38;5066578;28;20016;-70
2024/03/13 08:22:18;;;;;;;5.55;4.93;;;;;;;14.37;100.00;140756.81;5068986;28;20501;-73
2024/03/13 08:24:44;;;;;;;6.60;5.22;;;;;;;15.16;100.00;140757.63;5069483;28;20024;-70
2024/03/13 08:27:10;;;;;;;8.40;5.32;;;;;;;15.76;100.00;140831.38;5071229;28;20035;-70
2024/03/13 08:29:37;;;;;;;6.70;5.72;;;;;;;14.33;100.00;140861.25;5069450;28;20105;-70
2024/03/13 08:32:05;;;;;;;5.82;5.22;;;;;;;15.54;100.00;140736.75;5070775;28;20035;-70
2024/03/13 08:34:32;;;;;;;5.47;4.97;;;;;;;14.19;100.00;140583.66;5069957;28;20037;-70
2024/03/13 08:36:58;;;;;;;6.63;5.93;;;;;;;15.82;100.00;140688.69;5068767;28;20036;-70
2024/03/13 08:39:27;;;;;;;7.82;6.28;;;;;;;15.34;100.00;140657.44;5070209;28;20036;-70
2024/03/13 08:41:53;;;;;;;9.02;5.65;;;;;;;14.66;100.00;140612.78;5071113;28;20437;-75
2024/03/13 08:44:19;;;;;;;5.75;5.15;;;;;;;14.86;100.00;140593.84;5070857;28;20487;-70
2024/03/13 08:46:45;;;;;;;7.55;4.90;;;;;;;15.32;100.00;140485.47;5052580;28;20037;-70
2024/03/13 08:49:11;;;;;;;6.32;5.07;;;;;;;14.96;100.00;140470.91;5066732;28;20028;-70
2024/03/13 08:51:36;;;;;;;7.88;6.63;;;;;;;14.99;100.00;140492.34;5070540;28;20034;-70
2024/03/13 08:54:02;;;;;;;11.55;7.43;;;;;;;15.28;100.00;140416.50;5052058;28;20063;-71
2024/03/13 08:56:27;;;;;;;9.57;7.03;;;;;;;14.82;100.00;140277.53;5070557;28;20098;-70
2024/03/13 08:58:53;;;;;;;11.45;9.38;;;;;;;15.46;100.00;140396.56;5069973;28;20475;-69
2024/03/13 09:01:18;;;;;;;11.43;9.50;;;;;;;14.61;100.00;140256.78;5070352;28;20033;-70
2024/03/13 09:03:45;;;;;;;14.40;10.27;;;;;;;15.05;100.00;140282.28;5070717;28;20036;-70
2024/03/13 09:06:14;;;;;;;10.05;8.20;;;;;;;15.11;100.00;140238.16;5070827;28;20078;-70
2024/03/13 09:08:39;;;;;;;7.43;6.65;;;;;;;14.76;100.00;140123.66;5068883;28;20052;-70
2024/03/13 09:11:05;;;;;;;8.15;6.70;;;;;;;14.20;100.00;139926.44;5069982;28;20518;-70
2024/03/13 09:13:30;;;;;;;9.55;7.97;;;;;;;13.79;100.00;139776.28;5070083;28;20043;-70
2024/03/13 09:16:00;;;;;;;10.13;7.00;;;;;;;14.51;100.00;139916.25;5068323;28;20039;-73
2024/03/13 09:18:26;;;;;;;10.23;8.32;;;;;;;13.90;100.00;139720.44;5069084;28;20032;-73
2024/03/13 09:20:52;;;;;;;12.80;9.38;;;;;;;14.25;100.00;139730.09;5070074;28;20406;-72
2024/03/13 09:23:17;;;;;;;11.13;8.45;;;;;;;14.24;100.00;139727.78;5070221;28;20094;-70
2024/03/13 09:25:43;;;;;;;16.13;12.63;;;;;;;14.49;100.00;139819.84;5070532;28;20480;-70
2024/03/13 09:28:08;;;;;;;8.35;6.95;;;;;;;14.57;100.00;139852.66;5059035;28;20123;-70
2024/03/13 09:30:34;;;;;;;10.55;7.90;;;;;;;14.66;100.00;139895.78;5069883;28;20414;-70
2024/03/13 09:33:03;;;;;;;7.78;5.72;;;;;;;15.27;100.00;140045.06;5070132;28;20509;-72
2024/03/13 09:35:28;;;;;;;6.65;5.95;;;;;;;14.44;100.00;139852.16;5071987;28;20195;-70
2024/03/13 09:37:54;;;;;;;7.82;6.15;;;;;;;14.51;100.00;139811.56;5070786;28;20152;-71
2024/03/13 09:40:20;;;;;;;14.32;10.48;;;;;;;14.78;100.00;139865.50;5069909;28;20433;-70
2024/03/13 09:42:52;;;;;;;7.75;6.95;;;;;;;15.17;100.00;139945.09;5069362;28;20403;-70
2024/03/13 09:45:20;;;;;;;;;;;;;;;17.24;100.00;140337.59;5069221;28;20204;-70
2024/03/13 09:47:47;;;;;;;9.65;8.10;;;;;;;16.67;100.00;140295.13;5069531;28;20319;-69
2024/03/13 09:50:15;;;;;;;7.80;6.90;;;;;;;16.74;100.00;140234.78;5069592;28;20024;-70
2024/03/13 09:52:42;;;;;;;7.07;6.35;;;;;;;16.67;100.00;140179.47;5067617;28;20025;-74
2024/03/13 09:55:12;;;;;;;10.23;7.10;;;;;;;15.95;100.00;139942.22;5069224;28;20050;-71
2024/03/13 09:57:39;;;;;;;10.25;8.07;;;;;;;16.57;100.00;139992.50;5067891;28;20049;-70
2024/03/13 10:00:13;;;;;;;10.43;9.35;;;;;;;16.70;100.00;139884.09;5074228;28;20507;-70
2024/03/13 10:02:42;;;;;;;5.13;4.63;;;;;;;16.26;100.00;139442.66;5073352;28;20030;-70
2024/03/13 10:05:11;;;;;;;7.53;6.72;;;;;;;17.09;100.00;139383.81;5067731;28;20029;-70
2024/03/13 10:07:37;;;;;;;6.80;5.57;;;;;;;15.85;100.00;138516.22;5069131;28;20479;-70
2024/03/13 10:10:22;;;;;;;5.25;4.70;;;;;;;16.09;100.00;138097.19;5069656;28;20078;-71
2024/03/13 10:12:49;;;;;;;7.18;6.35;;;;;;;16.10;100.00;137352.78;5067462;28;20025;-70
2024/03/13 10:15:15;;;;;;;11.25;9.75;;;;;;;15.80;100.00;136947.28;5068331;28;20029;-70
2024/03/13 10:17:47;;;;;;;9.70;8.40;;;;;;;15.15;100.00;135951.09;5068043;28;20032;-70
2024/03/13 10:20:16;;;;;;;7.57;6.78;;;;;;;15.27;100.00;135493.34;5067827;28;20032;-70
2024/03/13 10:22:44;;;;;;;9.20;6.53;;;;;;;16.23;100.00;135785.72;5068713;28;20115;-70
2024/03/13 10:25:19;;;;;;;6.13;5.53;;;;;;;15.10;100.00;134914.28;5069170;28;20121;-70
2024/03/13 10:27:44;;;;;;;9.43;6.80;;;;;;;15.11;100.00;134325.44;5065043;28;20041;-71
2024/03/13 10:30:10;;;;;;;12.80;10.88;;;;;;;15.12;100.00;134296.63;5070605;28;20111;-71
2024/03/13 10:32:36;;;;;;;6.25;5.65;;;;;;;14.04;100.00;133556.47;5068151;28;20024;-70
2024/03/13 10:35:08;;;;;;;5.32;4.82;;;;;;;14.97;100.00;134150.72;5067431;28;20032;-75
2024/03/13 10:37:35;;;;;;;;;;;;;;;14.85;100.00;134037.09;5069352;28;20124;-72
2024/03/13 10:40:04;;;;;;;7.57;6.78;;;;;;;14.17;100.00;133843.63;5052352;28;19935;-70
2024/03/13 10:42:30;;;;;;;29.13;15.50;;;;;;;14.14;100.00;134030.56;5069259;28;20712;-70
2024/03/13 10:44:57;;;;;;;7.03;5.80;;;;;;;14.12;100.00;133850.53;5050087;28;20111;-70
2024/03/13 10:47:23;;;;;;;10.57;6.88;;;;;;;14.11;100.00;133843.13;5067733;28;20675;-70
2024/03/13 10:49:49;;;;;;;7.75;6.80;;;;;;;14.57;100.00;133993.66;5069586;28;20035;-70
2024/03/13 10:52:17;;;;;;;8.48;6.07;;;;;;;14.74;100.00;134204.84;5050489;28;20616;-71
2024/03/13 10:54:43;;;;;;;7.90;6.97;;;;;;;14.99;100.00;134302.56;5068079;28;20036;-72
2024/03/13 10:57:16;;;;;;;8.30;6.72;;;;;;;15.89;100.00;135304.66;5067081;28;20080;-70
2024/03/13 10:59:41;;;;;;;9.55;7.60;;;;;;;15.49;100.00;134917.88;5067716;28;20094;-70
2024/03/13 11:02:13;;;;;;;13.80;9.57;;;;;;;14.75;100.00;134004.38;5068363;28;20739;-70
2024/03/13 11:04:40;;;;;;;8.52;6.32;;;;;;;14.22;100.00;133530.59;5067996;28;20033;-72
2024/03/13 11:07:13;;;;;;;10.57;7.78;;;;;;;15.19;100.00;133929.53;5068321;28;20068;-70
2024/03/13 11:09:39;;;;;;;9.80;8.07;;;;;;;15.07;100.00;133794.19;5068405;28;20035;-70
2024/03/13 11:12:19;;;;;;;7.43;6.63;;;;;;;15.27;100.00;133564.66;5068410;28;20033;-75
2024/03/13 11:14:50;;;;;;;10.38;8.73;;;;;;;15.40;100.00;133308.03;5068620;28;20028;-72
2024/03/13 11:17:19;;;;;;;;;;;;;;;15.54;100.00;133187.69;5067508;28;20032;-69
2024/03/13 11:20:06;;;;;;;8.63;7.22;;;;;;;15.52;100.00;132947.84;5065963;28;19917;-70
2024/03/13 11:22:34;;;;;;;10.25;7.68;;;;;;;14.45;100.00;132147.78;5067426;28;20071;-69
2024/03/13 11:25:05;;;;;;;15.85;14.10;;;;;;;14.97;100.00;132283.19;5068422;28;20570;-69
2024/03/13 11:27:33;;;;;;;16.48;14.73;;;;;;;14.99;100.00;132044.72;5050661;28;20052;-70
2024/03/13 11:30:03;;;;;;;12.02;8.50;;;;;;;14.23;100.00;131633.22;5068581;28;20041;-69